Time;durP1;ratioP1;P1;durP2;ratioP2;P2;SDS_P1;SDS_P2;PMS_P1;PMS_P2;Temp;Humidity;BMP_temperature;BMP_pressure;BME280_temperature;BME280_humidity;BME280_pressure;Samples;Min_cycle;Max_cycle;Signal;HPM_P1;HPM_P2
2023/06/18 00:01:05;;;;;;;28.70;21.33;;;15.80;99.90;;;;;;5090650;27;20074;-68
2023/06/18 00:03:31;;;;;;;27.33;21.75;;;15.80;99.90;;;;;;5107922;27;20501;-68
2023/06/18 00:05:56;;;;;;;30.58;23.02;;;15.70;99.90;;;;;;5090239;27;20042;-71
2023/06/18 00:08:23;;;;;;;32.38;24.48;;;15.70;99.90;;;;;;5105172;27;20047;-69
2023/06/18 00:10:49;;;;;;;29.85;22.50;;;15.70;99.90;;;;;;5106453;27;20051;-70
2023/06/18 00:13:15;;;;;;;30.13;22.25;;;15.60;99.90;;;;;;5088781;27;20101;-69
2023/06/18 00:15:40;;;;;;;29.85;22.00;;;15.60;99.90;;;;;;5106949;27;20086;-68
2023/06/18 00:18:06;;;;;;;31.45;23.75;;;15.60;99.90;;;;;;5074737;27;20154;-69
2023/06/18 00:20:35;;;;;;;29.92;22.30;;;15.60;99.90;;;;;;5091157;27;20066;-70
2023/06/18 00:23:01;;;;;;;29.10;22.92;;;15.60;99.90;;;;;;5093137;27;20058;-72
2023/06/18 00:25:28;;;;;;;31.33;23.27;;;15.60;99.90;;;;;;5115406;27;20092;-70
2023/06/18 00:27:55;;;;;;;32.78;23.50;;;15.60;99.90;;;;;;5103244;27;20540;-71
2023/06/18 00:30:21;;;;;;;32.72;22.48;;;15.60;99.90;;;;;;5106700;27;20439;-70
2023/06/18 00:32:48;;;;;;;31.73;22.83;;;15.50;99.90;;;;;;5106962;27;20053;-71
2023/06/18 00:35:14;;;;;;;30.60;23.05;;;15.50;99.90;;;;;;5109411;27;20137;-71
2023/06/18 00:37:44;;;;;;;30.38;22.42;;;15.50;99.90;;;;;;5089869;27;20041;-70
2023/06/18 00:40:12;;;;;;;31.63;23.60;;;15.50;99.90;;;;;;5091110;27;20046;-70
2023/06/18 00:42:39;;;;;;;32.50;22.63;;;15.40;99.90;;;;;;5091941;27;20053;-72
2023/06/18 00:45:08;;;;;;;28.50;22.23;;;15.40;99.90;;;;;;5112131;27;20118;-70
2023/06/18 00:47:36;;;;;;;34.42;22.33;;;15.40;99.90;;;;;;5110346;27;20039;-68
2023/06/18 00:50:05;;;;;;;28.38;21.67;;;15.40;99.90;;;;;;5111360;27;20406;-69
2023/06/18 00:52:34;;;;;;;34.58;24.75;;;15.30;99.90;;;;;;5094565;27;20073;-70
2023/06/18 00:55:01;;;;;;;31.33;23.52;;;15.30;99.90;;;;;;5096407;27;20092;-71
2023/06/18 00:57:28;;;;;;;37.92;25.50;;;15.30;99.90;;;;;;5094163;27;20043;-70
2023/06/18 00:59:55;;;;;;;33.25;24.85;;;15.20;99.90;;;;;;5111397;27;20080;-70
2023/06/18 01:02:25;;;;;;;35.28;25.20;;;15.20;99.90;;;;;;5095647;27;20043;-69
2023/06/18 01:04:55;;;;;;;34.17;24.48;;;15.20;99.90;;;;;;5087812;27;20381;-69
2023/06/18 01:07:22;;;;;;;31.90;24.95;;;15.20;99.90;;;;;;5110405;27;20447;-69
2023/06/18 01:09:54;;;;;;;34.15;24.90;;;15.10;99.90;;;;;;5118827;27;20039;-69
2023/06/18 01:12:21;;;;;;;39.47;25.73;;;15.10;99.90;;;;;;5107908;27;21472;-71
2023/06/18 01:14:53;;;;;;;31.83;24.85;;;15.10;99.90;;;;;;5092799;27;20043;-70
2023/06/18 01:17:24;;;;;;;31.15;23.75;;;15.10;99.90;;;;;;5060517;27;20091;-69
2023/06/18 01:20:00;;;;;;;32.47;23.27;;;15.10;99.90;;;;;;5081824;27;20301;-70
2023/06/18 01:22:44;;;;;;;30.88;23.35;;;15.10;99.90;;;;;;5113161;27;20058;-69
2023/06/18 01:25:11;;;;;;;33.90;24.35;;;15.10;99.90;;;;;;5096894;27;20057;-71
2023/06/18 01:27:41;;;;;;;32.53;23.73;;;15.10;99.90;;;;;;5094126;27;20038;-69
2023/06/18 01:30:11;;;;;;;32.35;24.95;;;15.20;99.90;;;;;;5110361;27;20157;-69
2023/06/18 01:32:38;;;;;;;34.92;25.30;;;15.10;99.90;;;;;;5096371;27;20533;-72
2023/06/18 01:35:05;;;;;;;34.10;25.20;;;15.20;99.90;;;;;;5113210;27;20055;-69
2023/06/18 01:37:36;;;;;;;36.40;25.83;;;15.10;99.90;;;;;;5094440;27;20515;-70
2023/06/18 01:40:27;;;;;;;33.63;24.90;;;15.10;99.90;;;;;;5113838;27;20047;-70
2023/06/18 01:42:59;;;;;;;34.22;25.33;;;15.10;99.90;;;;;;5101194;27;20561;-69
2023/06/18 01:46:06;;;;;;;35.13;25.20;;;15.00;99.90;;;;;;5108605;27;20161;-70
2023/06/18 01:48:45;;;;;;;;;;;15.10;99.90;;;;;;5110432;27;20084;-68
2023/06/18 01:51:12;;;;;;;34.65;24.98;;;15.00;99.90;;;;;;5111685;27;20456;-71
2023/06/18 01:53:40;;;;;;;34.58;24.67;;;15.00;99.90;;;;;;5103105;27;20054;-71
2023/06/18 01:56:09;;;;;;;37.05;26.05;;;15.00;99.90;;;;;;5110637;27;20150;-69
2023/06/18 01:58:36;;;;;;;35.85;26.00;;;15.10;99.90;;;;;;5109680;27;20069;-70
2023/06/18 02:01:02;;;;;;;35.78;25.63;;;15.10;99.90;;;;;;5111428;27;20058;-69
2023/06/18 02:03:28;;;;;;;37.97;25.17;;;15.10;99.90;;;;;;5093571;27;21239;-69
2023/06/18 02:05:55;;;;;;;36.22;26.23;;;15.10;99.90;;;;;;5110887;27;20232;-70
2023/06/18 02:08:21;;;;;;;33.88;25.65;;;15.10;99.90;;;;;;5092163;27;20171;-70
2023/06/18 02:10:46;;;;;;;39.15;26.95;;;15.10;99.90;;;;;;5095138;27;20142;-72
2023/06/18 02:13:12;;;;;;;35.38;25.98;;;15.10;99.90;;;;;;5091900;27;20367;-69
2023/06/18 02:15:40;;;;;;;41.35;25.75;;;15.10;99.90;;;;;;5111182;27;20035;-70
2023/06/18 02:18:06;;;;;;;37.00;26.25;;;15.10;99.90;;;;;;5129495;27;20051;-70
2023/06/18 02:20:32;;;;;;;34.75;25.40;;;15.10;99.90;;;;;;5108140;27;20504;-70
2023/06/18 02:22:58;;;;;;;38.05;25.50;;;15.10;99.90;;;;;;5125688;27;20122;-70
2023/06/18 02:25:29;;;;;;;37.97;25.73;;;15.10;99.90;;;;;;5077208;27;20099;-69
2023/06/18 02:28:02;;;;;;;38.65;27.67;;;15.10;99.90;;;;;;5111306;27;20281;-70
2023/06/18 02:30:29;;;;;;;38.22;25.85;;;15.10;99.90;;;;;;5113762;27;20085;-73
2023/06/18 02:32:58;;;;;;;38.05;27.55;;;15.10;99.90;;;;;;5094142;27;20043;-69
2023/06/18 02:35:26;;;;;;;38.15;26.58;;;15.10;99.90;;;;;;5111393;27;20175;-69
2023/06/18 02:37:52;;;;;;;40.05;28.25;;;15.10;99.90;;;;;;5113151;27;20046;-71
2023/06/18 02:40:17;;;;;;;41.33;27.83;;;15.10;99.90;;;;;;5092415;27;20088;-69
2023/06/18 02:42:50;;;;;;;39.78;27.02;;;15.10;99.90;;;;;;5109252;27;21005;-70
2023/06/18 02:45:18;;;;;;;38.42;27.25;;;15.10;99.90;;;;;;5109551;27;20103;-71
2023/06/18 02:47:45;;;;;;;40.45;27.52;;;15.10;99.90;;;;;;5109787;27;20043;-69
2023/06/18 02:50:11;;;;;;;41.13;27.05;;;15.10;99.90;;;;;;5110291;27;20083;-70
2023/06/18 02:52:38;;;;;;;34.45;25.40;;;15.10;99.90;;;;;;5110924;27;20146;-70
2023/06/18 02:55:05;;;;;;;38.45;26.25;;;15.10;99.90;;;;;;5109983;27;20089;-70
2023/06/18 02:57:33;;;;;;;40.13;27.77;;;15.10;99.90;;;;;;5076630;27;20095;-72
2023/06/18 02:59:59;;;;;;;39.92;27.48;;;15.10;99.90;;;;;;5108396;27;20230;-70
2023/06/18 03:02:25;;;;;;;43.45;28.50;;;15.10;99.90;;;;;;5091655;27;20487;-70
2023/06/18 03:04:51;;;;;;;37.63;27.20;;;15.10;99.90;;;;;;5109174;27;20559;-70
2023/06/18 03:07:17;;;;;;;39.83;28.05;;;15.10;99.90;;;;;;5107721;27;20046;-71
2023/06/18 03:09:43;;;;;;;38.92;27.42;;;15.10;99.90;;;;;;5111226;27;20615;-69
2023/06/18 03:12:11;;;;;;;39.60;27.92;;;15.10;99.90;;;;;;5108383;27;20046;-70
2023/06/18 03:14:37;;;;;;;41.90;28.00;;;15.10;99.90;;;;;;5092783;27;21677;-71
2023/06/18 03:17:03;;;;;;;37.78;26.73;;;15.10;99.90;;;;;;5111057;27;20492;-69
2023/06/18 03:19:28;;;;;;;38.17;27.38;;;15.10;99.90;;;;;;5110085;27;20054;-69
2023/06/18 03:21:54;;;;;;;38.67;27.60;;;15.20;99.90;;;;;;5108580;27;20062;-70
2023/06/18 03:24:20;;;;;;;39.85;27.40;;;15.20;99.90;;;;;;5111254;27;20091;-69
2023/06/18 03:26:46;;;;;;;40.58;28.88;;;15.20;99.90;;;;;;5130064;27;20043;-72
2023/06/18 03:29:12;;;;;;;38.22;25.88;;;15.30;99.90;;;;;;5110645;27;20584;-70
2023/06/18 03:31:39;;;;;;;38.08;27.05;;;15.30;99.90;;;;;;5107073;27;20051;-71
2023/06/18 03:34:06;;;;;;;36.80;26.20;;;15.30;99.90;;;;;;5109934;27;20047;-70
2023/06/18 03:36:43;;;;;;;39.72;27.75;;;15.40;99.90;;;;;;5109560;27;20068;-70
2023/06/18 03:39:09;;;;;;;40.20;27.42;;;15.40;99.90;;;;;;5108962;27;20054;-71
2023/06/18 03:41:36;;;;;;;41.15;28.17;;;15.40;99.90;;;;;;5104931;27;20069;-70
2023/06/18 03:44:04;;;;;;;42.95;29.23;;;15.50;99.90;;;;;;5109454;27;20051;-70
2023/06/18 03:46:32;;;;;;;37.92;27.25;;;15.50;99.90;;;;;;5106208;27;20115;-69
2023/06/18 03:48:57;;;;;;;43.72;27.77;;;15.60;99.90;;;;;;5110930;27;20051;-70
2023/06/18 03:51:23;;;;;;;42.25;27.27;;;15.60;99.90;;;;;;5092759;27;20446;-70
2023/06/18 03:53:50;;;;;;;39.15;27.23;;;15.60;99.90;;;;;;5124570;27;20302;-72
2023/06/18 03:56:16;;;;;;;41.22;27.38;;;15.70;99.90;;;;;;5093175;27;20092;-72
2023/06/18 03:58:43;;;;;;;42.17;27.77;;;15.70;99.90;;;;;;5092109;27;20043;-72
2023/06/18 04:01:10;;;;;;;39.85;27.65;;;15.70;99.90;;;;;;5108792;27;20455;-71
2023/06/18 04:03:36;;;;;;;42.08;27.45;;;15.80;99.90;;;;;;5086526;27;20051;-70
2023/06/18 04:06:03;;;;;;;38.55;26.42;;;15.80;99.90;;;;;;5108492;27;20093;-69
2023/06/18 04:08:29;;;;;;;40.78;26.48;;;15.80;99.90;;;;;;5093721;27;20099;-70
2023/06/18 04:10:55;;;;;;;39.90;26.95;;;15.80;99.90;;;;;;5092098;27;20492;-69
2023/06/18 04:13:22;;;;;;;43.40;27.90;;;15.90;99.90;;;;;;5105583;27;21042;-70
2023/06/18 04:15:49;;;;;;;39.70;26.30;;;15.90;99.90;;;;;;5112373;27;20096;-70
2023/06/18 04:18:14;;;;;;;38.72;26.48;;;15.90;99.90;;;;;;5113746;27;20516;-70
2023/06/18 04:20:41;;;;;;;35.97;25.05;;;16.00;99.90;;;;;;5096119;27;20043;-70
2023/06/18 04:23:08;;;;;;;37.53;26.27;;;16.00;99.90;;;;;;5110432;27;20122;-70
2023/06/18 04:25:34;;;;;;;35.47;25.20;;;16.10;99.90;;;;;;5085763;27;20073;-68
2023/06/18 04:28:00;;;;;;;34.55;25.27;;;16.10;99.90;;;;;;5110619;27;20481;-69
2023/06/18 04:30:26;;;;;;;37.92;25.92;;;16.10;99.90;;;;;;5112990;27;20516;-70
2023/06/18 04:32:52;;;;;;;37.35;24.95;;;16.10;99.90;;;;;;5096331;27;20059;-70
2023/06/18 04:35:19;;;;;;;36.45;25.90;;;16.20;99.90;;;;;;5107551;27;20062;-70
2023/06/18 04:37:45;;;;;;;40.58;26.70;;;16.20;99.90;;;;;;5095780;27;20035;-70
2023/06/18 04:40:11;;;;;;;36.50;25.13;;;16.30;99.90;;;;;;5090632;27;20057;-70
2023/06/18 04:42:38;;;;;;;35.17;26.13;;;16.30;99.90;;;;;;5071561;27;20051;-73
2023/06/18 04:45:09;;;;;;;35.38;25.20;;;16.40;99.90;;;;;;5122744;27;20051;-73
2023/06/18 04:47:41;;;;;;;38.90;27.75;;;16.40;99.90;;;;;;5094032;27;20446;-73
2023/06/18 04:50:10;;;;;;;35.97;25.63;;;16.40;99.90;;;;;;5126572;27;20101;-73
2023/06/18 04:52:36;;;;;;;37.40;26.30;;;16.40;99.90;;;;;;5092698;27;20476;-72
2023/06/18 04:55:02;;;;;;;37.70;26.30;;;16.50;99.90;;;;;;5110510;27;20043;-72
2023/06/18 04:57:29;;;;;;;35.80;25.05;;;16.50;99.90;;;;;;5077277;27;20454;-74
2023/06/18 05:00:00;;;;;;;38.15;27.00;;;16.60;99.90;;;;;;5097781;27;20488;-74
2023/06/18 05:02:26;;;;;;;36.10;25.83;;;16.70;99.90;;;;;;5078975;27;20049;-74
2023/06/18 05:04:53;;;;;;;36.22;25.63;;;16.70;99.90;;;;;;5110008;27;20051;-73
2023/06/18 05:07:24;;;;;;;37.08;25.30;;;16.80;99.90;;;;;;5094013;27;20058;-74
2023/06/18 05:09:56;;;;;;;36.75;25.40;;;16.90;99.90;;;;;;5089020;27;20500;-72
2023/06/18 05:12:25;;;;;;;34.25;24.98;;;16.90;99.90;;;;;;5110455;27;20125;-73
2023/06/18 05:14:51;;;;;;;39.00;26.77;;;17.00;99.90;;;;;;5091772;27;20057;-73
2023/06/18 05:17:30;;;;;;;33.38;24.10;;;17.00;99.90;;;;;;5110730;27;20440;-73
2023/06/18 05:20:09;;;;;;;36.53;26.08;;;17.10;99.90;;;;;;5079929;27;20073;-73
2023/06/18 05:22:49;;;;;;;36.60;24.92;;;17.20;99.90;;;;;;5092212;27;20057;-73
2023/06/18 05:25:26;;;;;;;34.00;25.00;;;17.20;99.90;;;;;;5089360;27;20062;-74
2023/06/18 05:27:51;;;;;;;36.45;25.25;;;17.30;99.90;;;;;;5093537;27;20035;-72
2023/06/18 05:30:18;;;;;;;34.15;24.85;;;17.30;99.90;;;;;;5108457;27;20118;-72
2023/06/18 05:33:29;;;;;;;37.13;26.02;;;17.30;99.90;;;;;;5077158;27;20492;-75
2023/06/18 05:36:14;;;;;;;36.10;25.30;;;17.40;99.90;;;;;;5101953;27;20039;-74
2023/06/18 05:38:59;;;;;;;36.20;25.60;;;17.50;99.90;;;;;;5093695;27;20075;-73
2023/06/18 05:41:52;;;;;;;33.38;24.75;;;17.50;99.90;;;;;;5125281;27;20496;-74
2023/06/18 05:44:24;;;;;;;38.78;24.98;;;17.50;99.90;;;;;;5095070;27;20043;-73
2023/06/18 05:46:56;;;;;;;35.33;25.27;;;17.60;99.90;;;;;;5088950;27;20070;-72
2023/06/18 05:49:21;;;;;;;36.13;24.55;;;17.60;99.90;;;;;;5077185;27;20489;-71
2023/06/18 05:51:47;;;;;;;32.85;24.30;;;17.70;99.90;;;;;;5090222;27;20568;-70
2023/06/18 05:54:13;;;;;;;35.05;24.17;;;17.70;99.90;;;;;;5111021;27;20563;-70
2023/06/18 05:56:39;;;;;;;33.60;24.40;;;17.80;99.90;;;;;;5091116;27;20427;-74
2023/06/18 05:59:05;;;;;;;30.15;23.38;;;17.90;99.90;;;;;;5108746;27;20598;-72
2023/06/18 06:01:33;;;;;;;32.42;23.67;;;18.00;99.90;;;;;;5107911;27;20131;-71
2023/06/18 06:04:00;;;;;;;33.28;23.95;;;18.10;99.90;;;;;;5091071;27;20099;-71
2023/06/18 06:06:26;;;;;;;29.65;22.45;;;18.20;99.90;;;;;;5064210;27;20126;-70
2023/06/18 06:08:52;;;;;;;29.70;22.80;;;18.40;99.90;;;;;;5111998;27;20133;-71
2023/06/18 06:11:18;;;;;;;31.42;23.83;;;18.50;99.90;;;;;;5108232;27;20074;-71
2023/06/18 06:13:44;;;;;;;29.83;21.88;;;18.60;99.90;;;;;;5094663;27;20161;-70
2023/06/18 06:16:16;;;;;;;32.33;22.98;;;18.70;99.90;;;;;;5093715;27;20042;-72
2023/06/18 06:18:41;;;;;;;30.58;23.35;;;18.80;99.90;;;;;;5109963;27;20043;-73
2023/06/18 06:21:07;;;;;;;29.58;22.27;;;18.90;99.90;;;;;;5109859;27;20498;-71
2023/06/18 06:23:33;;;;;;;27.23;20.33;;;18.90;99.90;;;;;;5092891;27;20081;-70
2023/06/18 06:25:59;;;;;;;30.35;21.75;;;18.90;99.90;;;;;;5089168;27;20906;-71
2023/06/18 06:28:25;;;;;;;27.77;20.63;;;18.90;99.90;;;;;;5087807;27;20071;-72
2023/06/18 06:30:51;;;;;;;30.15;22.02;;;19.00;99.90;;;;;;5071293;27;20050;-72
2023/06/18 06:33:29;;;;;;;30.42;20.98;;;19.10;99.90;;;;;;5105111;27;20405;-73
2023/06/18 06:36:19;;;;;;;25.90;20.73;;;19.20;99.90;;;;;;5116110;27;20105;-73
2023/06/18 06:39:08;;;;;;;25.05;20.33;;;19.20;99.90;;;;;;5116817;27;20054;-72
2023/06/18 06:41:50;;;;;;;28.13;20.75;;;19.30;99.90;;;;;;5082421;27;20069;-72
2023/06/18 06:44:25;;;;;;;;;;;19.40;99.90;;;;;;5122126;27;20066;-73
2023/06/18 06:46:58;;;;;;;25.42;19.50;;;19.50;99.90;;;;;;5083421;27;19922;-73
2023/06/18 06:49:30;;;;;;;23.65;19.23;;;19.60;99.90;;;;;;5086738;27;20051;-75
2023/06/18 06:52:09;;;;;;;25.42;19.77;;;19.80;99.90;;;;;;5070952;27;20057;-73
2023/06/18 06:54:47;;;;;;;23.90;19.98;;;20.10;99.90;;;;;;5125087;27;20103;-73
2023/06/18 06:57:32;;;;;;;23.38;19.27;;;20.30;99.90;;;;;;5105174;27;20053;-73
2023/06/18 07:00:03;;;;;;;21.70;18.02;;;20.50;99.90;;;;;;5088331;27;20188;-73
2023/06/18 07:02:45;;;;;;;23.55;18.90;;;20.70;99.90;;;;;;5108617;27;20084;-74
2023/06/18 07:05:21;;;;;;;26.15;19.52;;;20.80;99.90;;;;;;5107275;27;20043;-74
2023/06/18 07:08:05;;;;;;;23.80;17.90;;;20.90;99.90;;;;;;5079541;27;20038;-72
2023/06/18 07:11:07;;;;;;;25.20;19.48;;;21.00;99.90;;;;;;5107573;27;20112;-73
2023/06/18 07:13:44;;;;;;;23.17;19.23;;;21.00;99.90;;;;;;5109124;27;20062;-74
2023/06/18 07:17:08;;;;;;;24.58;19.02;;;21.00;99.90;;;;;;5100818;27;20081;-73
2023/06/18 07:19:57;;;;;;;23.00;18.65;;;21.20;99.90;;;;;;5123058;27;20041;-72
2023/06/18 07:22:32;;;;;;;24.05;18.85;;;21.30;99.90;;;;;;5122830;27;20915;-72
2023/06/18 07:25:11;;;;;;;23.02;17.90;;;21.40;99.90;;;;;;5066809;27;20054;-72
2023/06/18 07:27:48;;;;;;;20.83;16.63;;;21.40;99.90;;;;;;5104041;27;20559;-72
2023/06/18 07:30:32;;;;;;;24.23;18.98;;;21.50;99.90;;;;;;5103811;27;20054;-67
2023/06/18 07:32:57;;;;;;;23.15;19.42;;;21.60;99.90;;;;;;5087525;27;20047;-67
2023/06/18 07:35:23;;;;;;;21.52;17.52;;;21.50;99.90;;;;;;5091457;27;20047;-67
2023/06/18 07:37:49;;;;;;;24.42;18.38;;;21.50;99.90;;;;;;5107481;27;21091;-68
2023/06/18 07:40:15;;;;;;;23.83;19.08;;;21.70;99.90;;;;;;5108016;27;20517;-69
2023/06/18 07:42:41;;;;;;;21.80;18.15;;;21.80;99.90;;;;;;5080529;27;20619;-68
2023/06/18 07:45:07;;;;;;;23.48;18.10;;;22.00;99.90;;;;;;5107238;27;20154;-69
2023/06/18 07:47:33;;;;;;;23.17;17.88;;;22.20;99.90;;;;;;5090670;27;20501;-70
2023/06/18 07:50:00;;;;;;;27.77;18.17;;;22.50;99.90;;;;;;5111812;27;20112;-68
2023/06/18 07:52:26;;;;;;;22.60;17.38;;;22.80;99.90;;;;;;5092660;27;20104;-68
2023/06/18 07:54:52;;;;;;;20.08;16.45;;;23.10;99.90;;;;;;5108512;27;20077;-68
2023/06/18 07:57:18;;;;;;;20.42;16.52;;;23.40;99.90;;;;;;5107307;27;20149;-67
2023/06/18 07:59:44;;;;;;;20.00;16.27;;;23.70;99.90;;;;;;5104815;27;20051;-70
2023/06/18 08:02:10;;;;;;;23.77;15.95;;;23.90;99.90;;;;;;5089457;27;20499;-68
2023/06/18 08:04:35;;;;;;;19.98;16.52;;;24.10;99.90;;;;;;5086973;27;20407;-67
2023/06/18 08:07:01;;;;;;;21.35;17.17;;;24.40;99.90;;;;;;5105994;27;20051;-69
2023/06/18 08:09:27;;;;;;;19.13;15.25;;;24.70;99.90;;;;;;5109009;27;20046;-67
2023/06/18 08:11:53;;;;;;;22.17;16.27;;;24.90;99.90;;;;;;5092324;27;20043;-67
2023/06/18 08:14:19;;;;;;;20.73;14.63;;;25.20;99.90;;;;;;5096252;27;20055;-69
2023/06/18 08:16:44;;;;;;;17.65;14.48;;;25.40;99.90;;;;;;5105654;27;20066;-69
2023/06/18 08:19:11;;;;;;;18.48;14.55;;;25.40;99.90;;;;;;5104967;27;20485;-67
2023/06/18 08:21:36;;;;;;;20.17;15.25;;;25.30;99.90;;;;;;5100177;27;20050;-67
2023/06/18 08:24:04;;;;;;;18.02;15.45;;;25.40;99.90;;;;;;5089835;27;20367;-67
2023/06/18 08:26:31;;;;;;;18.70;14.32;;;25.50;99.90;;;;;;5101767;27;20046;-70
2023/06/18 08:28:58;;;;;;;18.88;15.00;;;25.50;99.90;;;;;;5095436;27;20074;-69
2023/06/18 08:31:24;;;;;;;15.82;13.02;;;25.50;99.90;;;;;;5113885;27;20374;-75
2023/06/18 08:33:50;;;;;;;19.17;14.52;;;25.90;99.90;;;;;;5083774;27;20115;-75
2023/06/18 08:36:22;;;;;;;16.17;13.30;;;26.00;99.90;;;;;;5073443;27;20043;-74
2023/06/18 08:38:48;;;;;;;16.88;14.57;;;26.30;99.90;;;;;;5098106;27;20047;-71
2023/06/18 08:41:14;;;;;;;16.58;14.25;;;26.60;99.90;;;;;;5101906;27;20047;-68
2023/06/18 08:43:39;;;;;;;18.20;13.13;;;26.70;99.90;;;;;;5081761;27;20591;-69
2023/06/18 08:46:10;;;;;;;17.83;13.20;;;26.90;99.90;;;;;;5101631;27;20046;-70
2023/06/18 08:48:48;;;;;;;16.73;13.00;;;27.10;99.90;;;;;;5090161;27;20254;-69
2023/06/18 08:51:16;;;;;;;12.75;10.90;;;27.10;99.90;;;;;;5102878;27;20546;-67
2023/06/18 08:53:50;;;;;;;14.32;12.82;;;27.50;99.90;;;;;;5101454;27;20059;-68
2023/06/18 08:56:21;;;;;;;13.43;11.70;;;27.40;99.90;;;;;;5090854;27;20047;-71
2023/06/18 08:58:58;;;;;;;17.02;12.40;;;27.60;99.90;;;;;;5101058;27;20039;-69
2023/06/18 09:01:27;;;;;;;16.00;12.45;;;27.80;99.90;;;;;;5102812;27;20085;-69
2023/06/18 09:03:54;;;;;;;15.48;12.13;;;27.80;99.70;;;;;;5112592;27;20480;-68
2023/06/18 09:06:22;;;;;;;15.15;11.63;;;27.80;99.50;;;;;;5105041;27;20564;-70
2023/06/18 09:08:48;;;;;;;15.25;11.30;;;27.80;98.80;;;;;;5086515;27;20047;-69
2023/06/18 09:11:14;;;;;;;13.95;10.77;;;27.70;97.90;;;;;;5071162;27;20155;-71
2023/06/18 09:13:42;;;;;;;13.45;9.98;;;27.60;97.60;;;;;;5106152;27;20047;-69
2023/06/18 09:16:10;;;;;;;15.95;10.60;;;27.60;97.60;;;;;;5109438;27;20319;-69
2023/06/18 09:18:36;;;;;;;15.15;11.10;;;27.60;97.50;;;;;;5110151;27;20100;-69
2023/06/18 09:21:03;;;;;;;13.85;10.75;;;27.70;97.10;;;;;;5107825;27;20051;-70
2023/06/18 09:23:30;;;;;;;14.57;11.27;;;27.80;96.70;;;;;;5108458;27;20666;-68
2023/06/18 09:25:57;;;;;;;17.35;10.25;;;27.80;96.60;;;;;;5085614;27;20039;-71
2023/06/18 09:28:27;;;;;;;17.52;10.63;;;27.70;96.60;;;;;;5090133;27;20593;-71
2023/06/18 09:31:01;;;;;;;11.85;10.15;;;27.60;96.40;;;;;;5104779;27;20422;-72
2023/06/18 09:33:29;;;;;;;13.65;10.65;;;27.50;96.20;;;;;;5121630;27;20086;-72
2023/06/18 09:36:14;;;;;;;14.10;9.63;;;27.40;96.50;;;;;;5106069;27;20047;-69
2023/06/18 09:38:43;;;;;;;11.90;10.00;;;27.40;95.40;;;;;;5102385;27;20055;-72
2023/06/18 09:41:11;;;;;;;11.15;8.43;;;27.40;96.20;;;;;;5088126;27;20050;-69
2023/06/18 09:43:43;;;;;;;11.73;9.38;;;27.10;96.00;;;;;;5103764;27;20055;-67
2023/06/18 09:46:10;;;;;;;12.48;10.23;;;26.90;96.00;;;;;;5081496;27;20054;-72
2023/06/18 09:48:49;;;;;;;13.10;10.25;;;26.80;96.20;;;;;;5104270;27;20623;-68
2023/06/18 09:51:17;;;;;;;11.93;9.02;;;26.80;96.20;;;;;;5104897;27;20054;-70
2023/06/18 09:53:47;;;;;;;14.13;10.50;;;26.80;96.40;;;;;;5091965;27;20134;-69
2023/06/18 09:56:16;;;;;;;11.55;9.23;;;26.80;96.30;;;;;;5083288;27;20097;-72
2023/06/18 09:58:50;;;;;;;11.73;9.85;;;26.90;96.10;;;;;;5103928;27;20046;-70
2023/06/18 10:01:19;;;;;;;14.95;10.85;;;26.90;95.80;;;;;;5085085;27;20515;-71
2023/06/18 10:03:48;;;;;;;12.27;10.18;;;27.00;95.80;;;;;;5071962;27;20075;-69
2023/06/18 10:06:16;;;;;;;15.20;10.25;;;27.10;95.70;;;;;;5122076;27;20039;-69
2023/06/18 10:08:52;;;;;;;13.02;10.05;;;27.20;95.60;;;;;;5105744;27;20055;-69
2023/06/18 10:11:18;;;;;;;;;;;27.20;95.50;;;;;;5101618;27;20039;-71
2023/06/18 10:13:58;;;;;;;12.35;9.43;;;27.20;94.80;;;;;;5121805;27;19928;-69
2023/06/18 10:16:28;;;;;;;16.20;9.88;;;27.30;95.50;;;;;;5106379;27;20168;-68
2023/06/18 10:19:09;;;;;;;13.70;9.13;;;27.50;95.20;;;;;;5108199;27;20071;-69
2023/06/18 10:21:38;;;;;;;12.73;9.43;;;27.90;94.70;;;;;;5113574;27;20338;-69
2023/06/18 10:24:36;;;;;;;11.07;8.55;;;28.30;94.50;;;;;;5083466;27;20054;-69
2023/06/18 10:27:02;;;;;;;10.77;9.13;;;28.70;93.40;;;;;;5088278;27;20493;-69
2023/06/18 10:29:29;;;;;;;11.50;9.80;;;29.20;93.60;;;;;;5067561;27;20039;-68
2023/06/18 10:31:56;;;;;;;11.68;10.18;;;29.40;93.20;;;;;;5085500;27;20047;-70
2023/06/18 10:34:22;;;;;;;11.63;9.85;;;29.40;92.70;;;;;;5108156;27;20054;-71
2023/06/18 10:36:48;;;;;;;12.30;9.48;;;29.40;92.40;;;;;;5105562;27;20042;-70
2023/06/18 10:39:14;;;;;;;11.23;8.95;;;29.70;92.30;;;;;;5072737;27;20047;-69
2023/06/18 10:41:45;;;;;;;17.60;9.95;;;29.80;92.00;;;;;;5089221;27;20057;-68
2023/06/18 10:44:11;;;;;;;10.77;9.05;;;29.70;91.40;;;;;;5089152;27;20054;-71
2023/06/18 10:47:20;;;;;;;10.15;9.02;;;29.80;91.40;;;;;;5088846;27;20039;-78
2023/06/18 10:50:15;;;;;;;13.25;8.93;;;30.00;91.00;;;;;;5102051;27;20069;-74
2023/06/18 10:52:41;;;;;;;182.80;33.63;;;30.10;91.10;;;;;;5083648;27;20062;-71
2023/06/18 10:55:11;;;;;;;35.15;12.40;;;30.20;91.10;;;;;;5108829;27;20053;-75
2023/06/18 10:57:44;;;;;;;19.13;9.38;;;30.20;90.50;;;;;;5106126;27;20039;-70
2023/06/18 11:00:15;;;;;;;11.90;7.95;;;30.20;90.40;;;;;;5091096;27;20054;-69
2023/06/18 11:02:41;;;;;;;12.30;8.10;;;30.40;88.90;;;;;;5123764;27;21731;-71
2023/06/18 11:05:07;;;;;;;10.50;8.82;;;30.60;88.80;;;;;;5080233;27;20042;-70
2023/06/18 11:07:33;;;;;;;14.30;9.18;;;30.70;88.00;;;;;;5106711;27;20065;-73
2023/06/18 11:10:02;;;;;;;14.02;8.73;;;30.90;87.60;;;;;;5088367;27;20042;-69
2023/06/18 11:12:30;;;;;;;11.68;8.55;;;31.00;87.00;;;;;;5104839;27;20058;-69
2023/06/18 11:15:19;;;;;;;10.48;8.50;;;31.00;86.20;;;;;;5105758;27;20067;-68
2023/06/18 11:17:50;;;;;;;12.75;7.78;;;31.00;84.20;;;;;;5103165;27;20046;-68
2023/06/18 11:20:18;;;;;;;9.25;8.15;;;31.10;85.10;;;;;;5091525;27;20073;-71
2023/06/18 11:22:45;;;;;;;10.50;7.55;;;31.20;84.80;;;;;;5106771;27;20475;-69
2023/06/18 11:25:12;;;;;;;10.77;8.48;;;31.20;84.50;;;;;;5124578;27;20112;-68
2023/06/18 11:27:42;;;;;;;11.45;7.93;;;31.40;84.20;;;;;;5086916;27;20096;-68
2023/06/18 11:30:10;;;;;;;9.93;7.90;;;31.70;84.20;;;;;;5089449;27;20051;-70
2023/06/18 11:32:37;;;;;;;9.88;7.32;;;31.90;83.10;;;;;;5107572;27;20139;-68
2023/06/18 11:35:06;;;;;;;11.57;8.07;;;32.20;82.10;;;;;;5110286;27;20043;-70
2023/06/18 11:37:32;;;;;;;11.45;7.55;;;32.20;81.10;;;;;;5111571;27;20051;-69
2023/06/18 11:39:57;;;;;;;10.18;7.30;;;32.30;81.20;;;;;;5107595;27;20103;-70
2023/06/18 11:42:26;;;;;;;8.80;7.57;;;32.50;80.80;;;;;;5087450;27;20046;-69
2023/06/18 11:44:54;;;;;;;9.57;7.93;;;32.50;80.40;;;;;;5102583;27;20216;-69
2023/06/18 11:47:20;;;;;;;11.20;8.35;;;32.70;80.40;;;;;;5088402;27;20162;-69
2023/06/18 11:49:47;;;;;;;12.00;8.05;;;32.90;80.20;;;;;;5101835;27;20069;-69
2023/06/18 11:52:16;;;;;;;11.30;8.13;;;33.00;79.70;;;;;;5064592;27;20433;-68
2023/06/18 11:54:43;;;;;;;10.20;8.07;;;33.20;79.00;;;;;;5108372;27;20482;-68
2023/06/18 11:57:13;;;;;;;8.48;7.55;;;33.40;78.20;;;;;;5104994;27;20499;-69
2023/06/18 11:59:40;;;;;;;7.10;5.07;;;33.50;77.10;;;;;;5104648;27;20742;-67
2023/06/18 12:02:10;;;;;;;9.60;5.70;;;33.50;75.50;;;;;;5111132;27;20046;-68
2023/06/18 12:04:36;;;;;;;6.05;5.30;;;33.60;74.40;;;;;;5101610;27;20145;-68
2023/06/18 12:07:02;;;;;;;8.57;5.25;;;33.80;74.00;;;;;;5106581;27;20406;-68
2023/06/18 12:09:34;;;;;;;7.30;6.07;;;34.00;72.50;;;;;;5088421;27;20035;-68
2023/06/18 12:12:03;;;;;;;6.75;5.57;;;34.30;72.10;;;;;;5078096;27;20139;-70
2023/06/18 12:14:40;;;;;;;6.55;5.22;;;34.50;70.70;;;;;;5101930;27;20042;-69
2023/06/18 12:17:21;;;;;;;10.30;5.25;;;34.50;68.10;;;;;;5103449;27;20476;-68
2023/06/18 12:19:54;;;;;;;7.53;4.60;;;34.30;67.20;;;;;;5098208;27;20099;-68
2023/06/18 12:22:19;;;;;;;5.15;4.57;;;34.00;67.40;;;;;;5103463;27;20173;-70
2023/06/18 12:24:45;;;;;;;7.93;4.70;;;33.60;65.80;;;;;;5102308;27;20388;-68
2023/06/18 12:27:14;;;;;;;7.97;4.82;;;33.20;65.40;;;;;;5101553;27;20051;-65
2023/06/18 12:29:42;;;;;;;9.20;5.43;;;33.00;65.90;;;;;;5083939;27;20103;-67
2023/06/18 12:32:08;;;;;;;10.80;6.22;;;32.80;67.00;;;;;;5098764;27;20043;-67
2023/06/18 12:34:35;;;;;;;7.38;5.25;;;32.70;66.90;;;;;;5101007;27;20057;-67
2023/06/18 12:37:01;;;;;;;6.10;5.03;;;32.40;66.60;;;;;;5107155;27;20183;-67
2023/06/18 12:39:27;;;;;;;7.78;5.30;;;32.40;67.50;;;;;;5107278;27;20427;-68
2023/06/18 12:41:55;;;;;;;9.48;5.00;;;32.50;68.20;;;;;;5103714;27;20177;-69
2023/06/18 12:44:21;;;;;;;10.00;5.70;;;32.60;68.30;;;;;;5081704;27;20047;-69